Terminal Aerodrome Forecast
Issued by NWS Boise, ID

Home | Current Version | Previous Version | Text Only | Print | Product List | Glossary On
Versions: 1 2 3 4 5 6 7 8 9 10 11 12 13 14 15 16 17 18 19 20 21 22 23 24 25 26 27 28 29 30 31 32 33 34 35 36 37 38 39 40
680
FTUS45 KBOI 101122
TAFBOI
TAF
KBOI 101122Z 1012/1112 VRB03KT 1/4SM FZFG OVC001
     FM102000 30005KT P6SM SCT003
     FM110300 VRB03KT 6SM BR OVC003
     FM110700 13003KT 1/2SM FZFG OVC001=

USA.gov is the U.S. government's official web portal to all federal, state and local government web resources and services.